Decoded Metar for LEZL (SEVILLA in SPAIN) (IATA:SVQ) | Meteo·Mobile Aviation Weather
aviador You're here:

LEZL Decoded Metar

SEVILLA in SPAIN
Report Time2018-12-18 16:30:00
UTC Time2018-12-18 16:48:45
Flight Rules vfr VFR
Wind040° at 03 kt
W.Decomp.*RWY 09: 2.0 kt HW 2.2 kt LCW
W.Rank040° ranks 6
Current wind is below 040° avg. (4.5)
Visibility9999 m
Phenomena:N/A
Clouds:Few 030 Hf
Expected CloudBase > 2,000 ft AGL from Temp-Dew spread
CeilingNone
Temp15°C (ISA 0)
Dew Point10°C (72% RH)
AAT14.0°C
QNH1023 hPa
Density Alt-46 ft
Elevation102 ft
Report Wrong Elevation
Raw Report
LEZL 181630Z 04003KT 320V070 9999 FEW030 15/10 Q1023 NOSIG=

Extra information for LEZL:More info

Metar Taf Metar & Taf Last 4 Metars F.Rules Stats Wind Profile Meteogram Temp Stats Airport Information Weather charts Add Link Nearby VenuesMetar ALERT Operation Metar Decoded Social comments